sensor_id;sensor_type;location;lat;lon;timestamp;P1;durP1;ratioP1;P2;durP2;ratioP2
52322;SDS011;38263;52.920;6.238;2023-04-25T00:01:05;13.75;;;4.15;;
52322;SDS011;38263;52.920;6.238;2023-04-25T00:03:31;18.63;;;4.22;;
52322;SDS011;38263;52.920;6.238;2023-04-25T00:06:00;12.80;;;3.65;;
52322;SDS011;38263;52.920;6.238;2023-04-25T00:08:29;18.00;;;3.95;;
52322;SDS011;38263;52.920;6.238;2023-04-25T00:10:56;12.90;;;3.90;;
52322;SDS011;38263;52.920;6.238;2023-04-25T00:13:22;17.38;;;4.07;;
52322;SDS011;38263;52.920;6.238;2023-04-25T00:15:48;21.63;;;3.60;;
52322;SDS011;38263;52.920;6.238;2023-04-25T00:18:15;13.38;;;4.85;;
52322;SDS011;38263;52.920;6.238;2023-04-25T00:20:42;11.85;;;3.70;;
52322;SDS011;38263;52.920;6.238;2023-04-25T00:23:11;12.98;;;3.45;;
52322;SDS011;38263;52.920;6.238;2023-04-25T00:25:37;13.10;;;3.53;;
52322;SDS011;38263;52.920;6.238;2023-04-25T00:28:02;17.92;;;4.43;;
52322;SDS011;38263;52.920;6.238;2023-04-25T00:30:28;13.93;;;3.85;;
52322;SDS011;38263;52.920;6.238;2023-04-25T00:32:54;17.13;;;4.60;;
52322;SDS011;38263;52.920;6.238;2023-04-25T00:35:20;15.95;;;4.32;;
52322;SDS011;38263;52.920;6.238;2023-04-25T00:37:46;22.45;;;3.90;;
52322;SDS011;38263;52.920;6.238;2023-04-25T00:40:12;15.50;;;3.33;;
52322;SDS011;38263;52.920;6.238;2023-04-25T00:42:38;19.35;;;4.72;;
52322;SDS011;38263;52.920;6.238;2023-04-25T00:45:06;13.23;;;3.88;;
52322;SDS011;38263;52.920;6.238;2023-04-25T00:47:32;22.80;;;4.85;;
52322;SDS011;38263;52.920;6.238;2023-04-25T00:49:58;11.90;;;3.40;;
52322;SDS011;38263;52.920;6.238;2023-04-25T00:52:24;21.77;;;4.90;;
52322;SDS011;38263;52.920;6.238;2023-04-25T00:54:50;13.65;;;3.45;;
52322;SDS011;38263;52.920;6.238;2023-04-25T00:57:16;17.15;;;4.80;;
52322;SDS011;38263;52.920;6.238;2023-04-25T00:59:43;12.90;;;4.13;;
52322;SDS011;38263;52.920;6.238;2023-04-25T01:02:11;17.58;;;4.20;;
52322;SDS011;38263;52.920;6.238;2023-04-25T01:04:38;17.90;;;3.85;;
52322;SDS011;38263;52.920;6.238;2023-04-25T01:07:04;14.75;;;3.58;;
52322;SDS011;38263;52.920;6.238;2023-04-25T01:09:30;12.75;;;3.63;;
52322;SDS011;38263;52.920;6.238;2023-04-25T01:11:59;21.65;;;6.03;;
52322;SDS011;38263;52.920;6.238;2023-04-25T01:14:26;15.55;;;3.63;;
52322;SDS011;38263;52.920;6.238;2023-04-25T01:16:52;14.80;;;4.28;;
52322;SDS011;38263;52.920;6.238;2023-04-25T01:19:18;14.75;;;4.85;;
52322;SDS011;38263;52.920;6.238;2023-04-25T01:21:44;15.40;;;3.22;;
52322;SDS011;38263;52.920;6.238;2023-04-25T01:24:10;14.05;;;3.47;;
52322;SDS011;38263;52.920;6.238;2023-04-25T01:26:37;15.38;;;2.95;;
52322;SDS011;38263;52.920;6.238;2023-04-25T01:29:06;15.38;;;3.22;;
52322;SDS011;38263;52.920;6.238;2023-04-25T01:31:32;10.85;;;3.35;;
52322;SDS011;38263;52.920;6.238;2023-04-25T01:34:00;15.25;;;3.78;;
52322;SDS011;38263;52.920;6.238;2023-04-25T01:36:26;19.63;;;3.90;;
52322;SDS011;38263;52.920;6.238;2023-04-25T01:38:52;21.55;;;3.75;;
52322;SDS011;38263;52.920;6.238;2023-04-25T01:41:18;15.77;;;3.60;;
52322;SDS011;38263;52.920;6.238;2023-04-25T01:43:44;11.25;;;2.67;;
52322;SDS011;38263;52.920;6.238;2023-04-25T01:46:11;14.30;;;4.47;;
52322;SDS011;38263;52.920;6.238;2023-04-25T01:48:37;17.45;;;4.82;;
52322;SDS011;38263;52.920;6.238;2023-04-25T01:51:03;12.27;;;2.97;;
52322;SDS011;38263;52.920;6.238;2023-04-25T01:53:29;18.25;;;3.40;;
52322;SDS011;38263;52.920;6.238;2023-04-25T01:55:55;15.75;;;4.30;;
52322;SDS011;38263;52.920;6.238;2023-04-25T01:58:21;18.52;;;3.42;;
52322;SDS011;38263;52.920;6.238;2023-04-25T02:00:47;18.02;;;3.42;;
52322;SDS011;38263;52.920;6.238;2023-04-25T02:03:13;9.15;;;2.60;;
52322;SDS011;38263;52.920;6.238;2023-04-25T02:05:39;13.13;;;3.28;;
52322;SDS011;38263;52.920;6.238;2023-04-25T02:08:05;14.45;;;3.25;;
52322;SDS011;38263;52.920;6.238;2023-04-25T02:10:32;18.92;;;3.45;;
52322;SDS011;38263;52.920;6.238;2023-04-25T02:12:58;15.05;;;3.05;;
52322;SDS011;38263;52.920;6.238;2023-04-25T02:15:24;14.98;;;3.30;;
52322;SDS011;38263;52.920;6.238;2023-04-25T02:17:50;16.05;;;3.35;;
52322;SDS011;38263;52.920;6.238;2023-04-25T02:20:18;17.80;;;3.22;;
52322;SDS011;38263;52.920;6.238;2023-04-25T02:22:45;15.32;;;3.63;;
52322;SDS011;38263;52.920;6.238;2023-04-25T02:25:11;16.60;;;4.10;;
52322;SDS011;38263;52.920;6.238;2023-04-25T02:27:37;15.32;;;3.75;;
52322;SDS011;38263;52.920;6.238;2023-04-25T02:30:04;13.63;;;3.47;;
52322;SDS011;38263;52.920;6.238;2023-04-25T02:32:31;11.60;;;3.15;;
52322;SDS011;38263;52.920;6.238;2023-04-25T02:34:59;15.05;;;3.17;;
52322;SDS011;38263;52.920;6.238;2023-04-25T02:37:28;13.07;;;3.03;;
52322;SDS011;38263;52.920;6.238;2023-04-25T02:39:54;10.30;;;2.90;;
52322;SDS011;38263;52.920;6.238;2023-04-25T02:42:20;12.00;;;2.90;;
52322;SDS011;38263;52.920;6.238;2023-04-25T02:44:46;17.20;;;3.75;;
52322;SDS011;38263;52.920;6.238;2023-04-25T02:47:12;14.07;;;3.63;;
52322;SDS011;38263;52.920;6.238;2023-04-25T02:49:38;13.93;;;3.95;;
52322;SDS011;38263;52.920;6.238;2023-04-25T02:52:04;10.00;;;3.20;;
52322;SDS011;38263;52.920;6.238;2023-04-25T02:54:30;14.40;;;3.47;;
52322;SDS011;38263;52.920;6.238;2023-04-25T02:56:56;14.60;;;2.75;;
52322;SDS011;38263;52.920;6.238;2023-04-25T02:59:22;12.93;;;2.97;;
52322;SDS011;38263;52.920;6.238;2023-04-25T03:01:48;12.35;;;2.70;;
52322;SDS011;38263;52.920;6.238;2023-04-25T03:04:14;9.45;;;3.25;;
52322;SDS011;38263;52.920;6.238;2023-04-25T03:06:40;8.52;;;2.35;;
52322;SDS011;38263;52.920;6.238;2023-04-25T03:09:06;12.15;;;2.67;;
52322;SDS011;38263;52.920;6.238;2023-04-25T03:11:32;15.90;;;3.25;;
52322;SDS011;38263;52.920;6.238;2023-04-25T03:13:58;9.93;;;2.70;;
52322;SDS011;38263;52.920;6.238;2023-04-25T03:16:24;13.13;;;2.83;;
52322;SDS011;38263;52.920;6.238;2023-04-25T03:18:50;9.43;;;2.33;;
52322;SDS011;38263;52.920;6.238;2023-04-25T03:21:16;11.10;;;2.92;;
52322;SDS011;38263;52.920;6.238;2023-04-25T03:23:42;11.32;;;2.53;;
52322;SDS011;38263;52.920;6.238;2023-04-25T03:26:08;9.65;;;2.50;;
52322;SDS011;38263;52.920;6.238;2023-04-25T03:28:35;10.90;;;2.15;;
52322;SDS011;38263;52.920;6.238;2023-04-25T03:31:01;5.35;;;2.47;;
52322;SDS011;38263;52.920;6.238;2023-04-25T03:33:27;6.25;;;2.78;;
52322;SDS011;38263;52.920;6.238;2023-04-25T03:35:53;13.15;;;2.63;;
52322;SDS011;38263;52.920;6.238;2023-04-25T03:38:19;9.48;;;2.38;;
52322;SDS011;38263;52.920;6.238;2023-04-25T03:40:45;14.50;;;2.88;;
52322;SDS011;38263;52.920;6.238;2023-04-25T03:43:11;8.73;;;2.22;;
52322;SDS011;38263;52.920;6.238;2023-04-25T03:45:37;8.55;;;2.35;;
52322;SDS011;38263;52.920;6.238;2023-04-25T03:48:03;7.97;;;2.08;;
52322;SDS011;38263;52.920;6.238;2023-04-25T03:50:29;11.35;;;3.13;;
52322;SDS011;38263;52.920;6.238;2023-04-25T03:52:55;10.00;;;1.85;;
52322;SDS011;38263;52.920;6.238;2023-04-25T03:55:21;5.95;;;1.65;;
52322;SDS011;38263;52.920;6.238;2023-04-25T03:57:47;7.85;;;1.70;;
52322;SDS011;38263;52.920;6.238;2023-04-25T04:00:13;6.15;;;2.30;;
52322;SDS011;38263;52.920;6.238;2023-04-25T04:02:39;5.28;;;1.73;;
52322;SDS011;38263;52.920;6.238;2023-04-25T04:05:05;9.25;;;2.53;;
52322;SDS011;38263;52.920;6.238;2023-04-25T04:07:31;11.57;;;2.75;;
52322;SDS011;38263;52.920;6.238;2023-04-25T04:09:58;13.32;;;3.05;;
52322;SDS011;38263;52.920;6.238;2023-04-25T04:12:24;11.18;;;3.28;;
52322;SDS011;38263;52.920;6.238;2023-04-25T04:14:50;13.32;;;2.42;;
52322;SDS011;38263;52.920;6.238;2023-04-25T04:17:16;16.05;;;3.05;;
52322;SDS011;38263;52.920;6.238;2023-04-25T04:19:42;8.98;;;2.42;;
52322;SDS011;38263;52.920;6.238;2023-04-25T04:22:08;7.25;;;2.05;;
52322;SDS011;38263;52.920;6.238;2023-04-25T04:24:34;8.55;;;2.78;;
52322;SDS011;38263;52.920;6.238;2023-04-25T04:27:00;11.65;;;2.67;;
52322;SDS011;38263;52.920;6.238;2023-04-25T04:29:26;9.30;;;2.53;;
52322;SDS011;38263;52.920;6.238;2023-04-25T04:31:52;13.43;;;2.30;;
52322;SDS011;38263;52.920;6.238;2023-04-25T04:34:18;17.48;;;3.95;;
52322;SDS011;38263;52.920;6.238;2023-04-25T04:36:45;8.85;;;2.53;;
52322;SDS011;38263;52.920;6.238;2023-04-25T04:39:11;10.45;;;3.00;;
52322;SDS011;38263;52.920;6.238;2023-04-25T04:41:37;8.68;;;1.92;;
52322;SDS011;38263;52.920;6.238;2023-04-25T04:44:04;12.98;;;2.55;;
52322;SDS011;38263;52.920;6.238;2023-04-25T04:46:31;5.78;;;1.95;;
52322;SDS011;38263;52.920;6.238;2023-04-25T04:49:02;8.23;;;2.80;;
52322;SDS011;38263;52.920;6.238;2023-04-25T04:51:28;7.03;;;2.10;;
52322;SDS011;38263;52.920;6.238;2023-04-25T04:53:56;15.23;;;3.13;;
52322;SDS011;38263;52.920;6.238;2023-04-25T04:56:23;8.38;;;2.10;;
52322;SDS011;38263;52.920;6.238;2023-04-25T04:58:50;7.55;;;2.22;;
52322;SDS011;38263;52.920;6.238;2023-04-25T05:01:17;10.30;;;2.67;;
52322;SDS011;38263;52.920;6.238;2023-04-25T05:03:43;12.35;;;2.85;;
52322;SDS011;38263;52.920;6.238;2023-04-25T05:06:09;10.25;;;2.38;;
52322;SDS011;38263;52.920;6.238;2023-04-25T05:08:36;7.15;;;2.38;;
52322;SDS011;38263;52.920;6.238;2023-04-25T05:11:02;12.25;;;2.33;;
52322;SDS011;38263;52.920;6.238;2023-04-25T05:13:28;8.90;;;2.38;;
52322;SDS011;38263;52.920;6.238;2023-04-25T05:15:54;15.25;;;3.28;;
52322;SDS011;38263;52.920;6.238;2023-04-25T05:18:20;13.65;;;2.65;;
52322;SDS011;38263;52.920;6.238;2023-04-25T05:20:46;11.23;;;2.38;;
52322;SDS011;38263;52.920;6.238;2023-04-25T05:23:12;7.65;;;2.15;;
52322;SDS011;38263;52.920;6.238;2023-04-25T05:25:38;8.15;;;1.90;;
52322;SDS011;38263;52.920;6.238;2023-04-25T05:28:03;11.15;;;2.28;;
52322;SDS011;38263;52.920;6.238;2023-04-25T05:30:30;11.13;;;2.40;;
52322;SDS011;38263;52.920;6.238;2023-04-25T05:32:56;8.57;;;2.33;;
52322;SDS011;38263;52.920;6.238;2023-04-25T05:35:22;10.88;;;2.67;;
52322;SDS011;38263;52.920;6.238;2023-04-25T05:37:48;8.70;;;2.15;;
52322;SDS011;38263;52.920;6.238;2023-04-25T05:40:14;13.85;;;2.72;;
52322;SDS011;38263;52.920;6.238;2023-04-25T05:42:40;11.38;;;2.45;;
52322;SDS011;38263;52.920;6.238;2023-04-25T05:45:06;8.65;;;2.08;;
52322;SDS011;38263;52.920;6.238;2023-04-25T05:47:32;10.95;;;2.00;;
52322;SDS011;38263;52.920;6.238;2023-04-25T05:49:58;10.18;;;2.47;;
52322;SDS011;38263;52.920;6.238;2023-04-25T05:52:24;7.07;;;2.08;;
52322;SDS011;38263;52.920;6.238;2023-04-25T05:54:50;11.07;;;2.20;;
52322;SDS011;38263;52.920;6.238;2023-04-25T05:57:20;9.75;;;2.63;;
52322;SDS011;38263;52.920;6.238;2023-04-25T05:59:46;8.77;;;3.45;;
52322;SDS011;38263;52.920;6.238;2023-04-25T06:02:12;12.45;;;2.15;;
52322;SDS011;38263;52.920;6.238;2023-04-25T06:04:38;12.15;;;2.55;;
52322;SDS011;38263;52.920;6.238;2023-04-25T06:07:04;9.57;;;2.20;;
52322;SDS011;38263;52.920;6.238;2023-04-25T06:09:30;7.90;;;2.42;;
52322;SDS011;38263;52.920;6.238;2023-04-25T06:11:56;9.80;;;2.45;;
52322;SDS011;38263;52.920;6.238;2023-04-25T06:14:22;6.20;;;1.88;;
52322;SDS011;38263;52.920;6.238;2023-04-25T06:16:47;10.70;;;2.22;;
52322;SDS011;38263;52.920;6.238;2023-04-25T06:19:13;5.10;;;1.40;;
52322;SDS011;38263;52.920;6.238;2023-04-25T06:21:39;8.07;;;1.52;;
52322;SDS011;38263;52.920;6.238;2023-04-25T06:24:05;5.05;;;1.83;;
52322;SDS011;38263;52.920;6.238;2023-04-25T06:26:31;11.82;;;2.20;;
52322;SDS011;38263;52.920;6.238;2023-04-25T06:28:57;7.07;;;1.95;;
52322;SDS011;38263;52.920;6.238;2023-04-25T06:31:22;5.93;;;1.40;;
52322;SDS011;38263;52.920;6.238;2023-04-25T06:33:48;5.80;;;1.52;;
52322;SDS011;38263;52.920;6.238;2023-04-25T06:36:14;8.02;;;1.73;;
52322;SDS011;38263;52.920;6.238;2023-04-25T06:38:40;6.43;;;1.50;;
52322;SDS011;38263;52.920;6.238;2023-04-25T06:41:06;5.47;;;1.50;;
52322;SDS011;38263;52.920;6.238;2023-04-25T06:43:32;6.75;;;1.20;;
52322;SDS011;38263;52.920;6.238;2023-04-25T06:45:59;3.15;;;1.25;;
52322;SDS011;38263;52.920;6.238;2023-04-25T06:48:26;3.47;;;1.55;;
52322;SDS011;38263;52.920;6.238;2023-04-25T06:50:52;5.32;;;1.20;;
52322;SDS011;38263;52.920;6.238;2023-04-25T06:53:18;3.28;;;1.30;;
52322;SDS011;38263;52.920;6.238;2023-04-25T06:55:44;4.80;;;1.00;;
52322;SDS011;38263;52.920;6.238;2023-04-25T06:58:10;2.30;;;1.10;;
52322;SDS011;38263;52.920;6.238;2023-04-25T07:00:36;8.13;;;1.63;;
52322;SDS011;38263;52.920;6.238;2023-04-25T07:03:02;2.50;;;1.10;;
52322;SDS011;38263;52.920;6.238;2023-04-25T07:05:28;8.77;;;1.92;;
52322;SDS011;38263;52.920;6.238;2023-04-25T07:07:53;5.25;;;1.60;;
52322;SDS011;38263;52.920;6.238;2023-04-25T07:10:19;6.13;;;1.50;;
52322;SDS011;38263;52.920;6.238;2023-04-25T07:12:46;6.15;;;2.05;;
52322;SDS011;38263;52.920;6.238;2023-04-25T07:15:12;8.23;;;1.40;;
52322;SDS011;38263;52.920;6.238;2023-04-25T07:17:38;10.88;;;1.65;;
52322;SDS011;38263;52.920;6.238;2023-04-25T07:20:04;11.00;;;1.95;;
52322;SDS011;38263;52.920;6.238;2023-04-25T07:22:31;7.97;;;1.90;;
52322;SDS011;38263;52.920;6.238;2023-04-25T07:24:57;3.97;;;1.73;;
52322;SDS011;38263;52.920;6.238;2023-04-25T07:27:23;5.07;;;2.17;;
52322;SDS011;38263;52.920;6.238;2023-04-25T07:29:49;9.07;;;1.80;;
52322;SDS011;38263;52.920;6.238;2023-04-25T07:32:15;7.18;;;1.42;;
52322;SDS011;38263;52.920;6.238;2023-04-25T07:34:41;5.72;;;1.30;;
52322;SDS011;38263;52.920;6.238;2023-04-25T07:37:07;6.13;;;1.73;;
52322;SDS011;38263;52.920;6.238;2023-04-25T07:39:33;9.02;;;1.88;;
52322;SDS011;38263;52.920;6.238;2023-04-25T07:42:00;8.43;;;1.98;;
52322;SDS011;38263;52.920;6.238;2023-04-25T07:44:27;7.80;;;2.45;;
52322;SDS011;38263;52.920;6.238;2023-04-25T07:46:53;6.53;;;1.77;;
52322;SDS011;38263;52.920;6.238;2023-04-25T07:49:19;8.38;;;1.70;;
52322;SDS011;38263;52.920;6.238;2023-04-25T07:51:45;8.68;;;1.70;;
52322;SDS011;38263;52.920;6.238;2023-04-25T07:54:13;7.45;;;1.95;;
52322;SDS011;38263;52.920;6.238;2023-04-25T07:56:40;8.15;;;1.65;;
52322;SDS011;38263;52.920;6.238;2023-04-25T07:59:06;10.23;;;1.77;;
52322;SDS011;38263;52.920;6.238;2023-04-25T08:01:33;9.80;;;1.80;;
52322;SDS011;38263;52.920;6.238;2023-04-25T08:03:59;6.90;;;1.60;;
52322;SDS011;38263;52.920;6.238;2023-04-25T08:06:25;7.53;;;1.60;;
52322;SDS011;38263;52.920;6.238;2023-04-25T08:08:52;6.18;;;1.83;;
52322;SDS011;38263;52.920;6.238;2023-04-25T08:11:24;13.25;;;2.50;;
52322;SDS011;38263;52.920;6.238;2023-04-25T08:13:50;8.57;;;2.17;;
52322;SDS011;38263;52.920;6.238;2023-04-25T08:16:16;4.97;;;1.92;;
52322;SDS011;38263;52.920;6.238;2023-04-25T08:18:42;8.32;;;1.58;;
52322;SDS011;38263;52.920;6.238;2023-04-25T08:21:08;9.52;;;2.35;;
52322;SDS011;38263;52.920;6.238;2023-04-25T08:23:45;6.82;;;1.48;;
52322;SDS011;38263;52.920;6.238;2023-04-25T08:26:20;6.50;;;1.48;;
52322;SDS011;38263;52.920;6.238;2023-04-25T08:29:01;5.43;;;1.50;;
52322;SDS011;38263;52.920;6.238;2023-04-25T08:31:27;5.93;;;1.40;;
52322;SDS011;38263;52.920;6.238;2023-04-25T08:37:25;9.73;;;2.00;;
52322;SDS011;38263;52.920;6.238;2023-04-25T08:39:51;5.07;;;1.58;;
52322;SDS011;38263;52.920;6.238;2023-04-25T08:42:18;9.85;;;1.60;;
52322;SDS011;38263;52.920;6.238;2023-04-25T08:44:52;9.55;;;1.70;;
52322;SDS011;38263;52.920;6.238;2023-04-25T08:47:23;6.38;;;1.80;;
52322;SDS011;38263;52.920;6.238;2023-04-25T08:49:56;4.97;;;1.95;;
52322;SDS011;38263;52.920;6.238;2023-04-25T08:52:22;6.53;;;1.73;;
52322;SDS011;38263;52.920;6.238;2023-04-25T08:54:51;10.55;;;1.67;;
52322;SDS011;38263;52.920;6.238;2023-04-25T08:57:21;6.57;;;1.83;;
52322;SDS011;38263;52.920;6.238;2023-04-25T08:59:52;8.02;;;1.67;;
52322;SDS011;38263;52.920;6.238;2023-04-25T09:05:21;9.50;;;2.17;;
52322;SDS011;38263;52.920;6.238;2023-04-25T09:08:58;5.22;;;1.50;;
52322;SDS011;38263;52.920;6.238;2023-04-25T09:12:09;7.07;;;1.95;;
52322;SDS011;38263;52.920;6.238;2023-04-25T09:14:36;6.28;;;1.58;;
52322;SDS011;38263;52.920;6.238;2023-04-25T09:17:19;8.50;;;2.33;;
52322;SDS011;38263;52.920;6.238;2023-04-25T09:19:51;6.07;;;1.63;;
52322;SDS011;38263;52.920;6.238;2023-04-25T09:22:40;8.93;;;2.15;;
52322;SDS011;38263;52.920;6.238;2023-04-25T09:25:09;5.00;;;1.73;;
52322;SDS011;38263;52.920;6.238;2023-04-25T09:27:36;9.30;;;2.15;;
52322;SDS011;38263;52.920;6.238;2023-04-25T09:30:02;7.47;;;1.85;;
52322;SDS011;38263;52.920;6.238;2023-04-25T09:32:28;7.43;;;2.30;;
52322;SDS011;38263;52.920;6.238;2023-04-25T09:34:55;8.32;;;1.77;;
52322;SDS011;38263;52.920;6.238;2023-04-25T09:37:25;7.47;;;1.77;;
52322;SDS011;38263;52.920;6.238;2023-04-25T09:39:55;5.97;;;1.60;;
52322;SDS011;38263;52.920;6.238;2023-04-25T09:42:22;5.45;;;1.70;;
52322;SDS011;38263;52.920;6.238;2023-04-25T09:44:49;5.00;;;1.38;;
52322;SDS011;38263;52.920;6.238;2023-04-25T09:47:16;5.60;;;2.00;;
52322;SDS011;38263;52.920;6.238;2023-04-25T09:49:43;8.95;;;1.80;;
52322;SDS011;38263;52.920;6.238;2023-04-25T09:52:11;8.45;;;1.90;;
52322;SDS011;38263;52.920;6.238;2023-04-25T09:54:38;11.23;;;2.08;;
52322;SDS011;38263;52.920;6.238;2023-04-25T09:57:08;10.65;;;1.83;;
52322;SDS011;38263;52.920;6.238;2023-04-25T09:59:36;8.48;;;2.53;;
52322;SDS011;38263;52.920;6.238;2023-04-25T10:02:03;8.05;;;1.50;;
52322;SDS011;38263;52.920;6.238;2023-04-25T10:04:32;7.18;;;1.55;;
52322;SDS011;38263;52.920;6.238;2023-04-25T10:07:00;8.02;;;1.65;;
52322;SDS011;38263;52.920;6.238;2023-04-25T10:09:27;6.53;;;2.13;;
52322;SDS011;38263;52.920;6.238;2023-04-25T10:11:57;8.13;;;2.35;;
52322;SDS011;38263;52.920;6.238;2023-04-25T10:14:23;8.43;;;2.72;;
52322;SDS011;38263;52.920;6.238;2023-04-25T10:16:50;7.45;;;1.80;;
52322;SDS011;38263;52.920;6.238;2023-04-25T10:19:18;8.20;;;2.00;;
52322;SDS011;38263;52.920;6.238;2023-04-25T10:21:50;11.35;;;2.47;;
52322;SDS011;38263;52.920;6.238;2023-04-25T10:24:16;6.53;;;1.90;;
52322;SDS011;38263;52.920;6.238;2023-04-25T10:26:43;7.90;;;1.80;;
52322;SDS011;38263;52.920;6.238;2023-04-25T10:29:09;9.13;;;1.83;;
52322;SDS011;38263;52.920;6.238;2023-04-25T10:31:38;8.00;;;1.80;;
52322;SDS011;38263;52.920;6.238;2023-04-25T10:34:10;4.43;;;1.55;;
52322;SDS011;38263;52.920;6.238;2023-04-25T10:36:36;11.98;;;1.92;;
52322;SDS011;38263;52.920;6.238;2023-04-25T10:39:06;6.20;;;1.48;;
52322;SDS011;38263;52.920;6.238;2023-04-25T10:41:45;9.32;;;2.22;;
52322;SDS011;38263;52.920;6.238;2023-04-25T10:44:11;5.40;;;1.58;;
52322;SDS011;38263;52.920;6.238;2023-04-25T10:46:37;6.38;;;2.22;;
52322;SDS011;38263;52.920;6.238;2023-04-25T10:49:03;9.93;;;2.25;;
52322;SDS011;38263;52.920;6.238;2023-04-25T10:51:31;6.43;;;1.83;;
52322;SDS011;38263;52.920;6.238;2023-04-25T10:54:00;8.82;;;2.20;;
52322;SDS011;38263;52.920;6.238;2023-04-25T10:56:31;7.47;;;2.22;;
52322;SDS011;38263;52.920;6.238;2023-04-25T10:59:12;9.27;;;2.20;;
52322;SDS011;38263;52.920;6.238;2023-04-25T11:01:39;5.70;;;1.38;;
52322;SDS011;38263;52.920;6.238;2023-04-25T11:04:06;6.90;;;1.40;;
52322;SDS011;38263;52.920;6.238;2023-04-25T11:06:54;8.73;;;1.73;;
52322;SDS011;38263;52.920;6.238;2023-04-25T11:09:23;9.35;;;2.03;;
52322;SDS011;38263;52.920;6.238;2023-04-25T11:11:55;11.38;;;1.83;;
52322;SDS011;38263;52.920;6.238;2023-04-25T11:14:21;10.20;;;1.65;;
52322;SDS011;38263;52.920;6.238;2023-04-25T11:16:52;5.53;;;1.10;;
52322;SDS011;38263;52.920;6.238;2023-04-25T11:19:19;12.27;;;3.72;;
52322;SDS011;38263;52.920;6.238;2023-04-25T11:21:45;7.18;;;2.17;;
52322;SDS011;38263;52.920;6.238;2023-04-25T11:24:11;6.00;;;1.73;;
52322;SDS011;38263;52.920;6.238;2023-04-25T11:26:37;7.85;;;1.52;;
52322;SDS011;38263;52.920;6.238;2023-04-25T11:29:03;7.82;;;2.35;;
52322;SDS011;38263;52.920;6.238;2023-04-25T11:31:29;8.05;;;2.70;;
52322;SDS011;38263;52.920;6.238;2023-04-25T11:33:58;8.85;;;1.92;;
52322;SDS011;38263;52.920;6.238;2023-04-25T11:36:25;6.90;;;1.30;;
52322;SDS011;38263;52.920;6.238;2023-04-25T11:38:51;7.50;;;1.67;;
52322;SDS011;38263;52.920;6.238;2023-04-25T11:41:18;6.88;;;1.02;;
52322;SDS011;38263;52.920;6.238;2023-04-25T11:43:45;5.20;;;1.33;;
52322;SDS011;38263;52.920;6.238;2023-04-25T11:46:11;4.70;;;1.30;;
52322;SDS011;38263;52.920;6.238;2023-04-25T11:48:40;2.42;;;0.98;;
52322;SDS011;38263;52.920;6.238;2023-04-25T11:51:07;3.63;;;1.02;;
52322;SDS011;38263;52.920;6.238;2023-04-25T11:53:33;8.20;;;1.55;;
52322;SDS011;38263;52.920;6.238;2023-04-25T11:56:00;4.95;;;1.40;;
52322;SDS011;38263;52.920;6.238;2023-04-25T11:58:26;6.38;;;1.27;;
52322;SDS011;38263;52.920;6.238;2023-04-25T12:00:52;3.47;;;1.27;;
52322;SDS011;38263;52.920;6.238;2023-04-25T12:03:19;6.95;;;1.73;;
52322;SDS011;38263;52.920;6.238;2023-04-25T12:05:46;4.60;;;1.60;;
52322;SDS011;38263;52.920;6.238;2023-04-25T12:08:12;10.02;;;1.45;;
52322;SDS011;38263;52.920;6.238;2023-04-25T12:10:39;5.85;;;2.15;;
52322;SDS011;38263;52.920;6.238;2023-04-25T12:13:22;5.60;;;1.52;;
52322;SDS011;38263;52.920;6.238;2023-04-25T12:15:49;3.88;;;1.60;;
52322;SDS011;38263;52.920;6.238;2023-04-25T12:18:15;6.63;;;1.67;;
52322;SDS011;38263;52.920;6.238;2023-04-25T12:20:44;8.93;;;1.50;;
52322;SDS011;38263;52.920;6.238;2023-04-25T12:23:10;6.55;;;1.75;;
52322;SDS011;38263;52.920;6.238;2023-04-25T12:25:38;8.65;;;1.90;;
52322;SDS011;38263;52.920;6.238;2023-04-25T12:28:15;9.45;;;1.40;;
52322;SDS011;38263;52.920;6.238;2023-04-25T12:33:32;7.53;;;1.90;;
52322;SDS011;38263;52.920;6.238;2023-04-25T12:35:59;4.68;;;1.67;;
52322;SDS011;38263;52.920;6.238;2023-04-25T12:38:29;8.43;;;2.78;;
52322;SDS011;38263;52.920;6.238;2023-04-25T12:40:56;4.57;;;1.25;;
52322;SDS011;38263;52.920;6.238;2023-04-25T12:43:23;6.03;;;1.80;;
52322;SDS011;38263;52.920;6.238;2023-04-25T12:45:50;5.95;;;1.83;;
52322;SDS011;38263;52.920;6.238;2023-04-25T12:48:16;7.07;;;1.60;;
52322;SDS011;38263;52.920;6.238;2023-04-25T12:50:42;5.22;;;1.73;;
52322;SDS011;38263;52.920;6.238;2023-04-25T12:53:08;5.72;;;1.75;;
52322;SDS011;38263;52.920;6.238;2023-04-25T12:55:34;9.20;;;2.05;;
52322;SDS011;38263;52.920;6.238;2023-04-25T12:58:00;6.15;;;1.58;;
52322;SDS011;38263;52.920;6.238;2023-04-25T13:00:28;8.23;;;1.75;;
52322;SDS011;38263;52.920;6.238;2023-04-25T13:02:53;22.02;;;9.70;;
52322;SDS011;38263;52.920;6.238;2023-04-25T13:05:21;24.55;;;11.90;;
52322;SDS011;38263;52.920;6.238;2023-04-25T13:07:47;6.30;;;1.73;;
52322;SDS011;38263;52.920;6.238;2023-04-25T13:10:13;4.68;;;1.52;;
52322;SDS011;38263;52.920;6.238;2023-04-25T13:12:39;6.30;;;1.73;;
52322;SDS011;38263;52.920;6.238;2023-04-25T13:15:05;6.05;;;1.60;;
52322;SDS011;38263;52.920;6.238;2023-04-25T13:17:34;7.10;;;2.80;;
52322;SDS011;38263;52.920;6.238;2023-04-25T13:20:00;6.38;;;2.45;;
52322;SDS011;38263;52.920;6.238;2023-04-25T13:22:26;6.88;;;1.80;;
52322;SDS011;38263;52.920;6.238;2023-04-25T13:24:52;10.13;;;2.00;;
52322;SDS011;38263;52.920;6.238;2023-04-25T13:27:18;10.27;;;1.50;;
52322;SDS011;38263;52.920;6.238;2023-04-25T13:29:44;6.72;;;1.52;;
52322;SDS011;38263;52.920;6.238;2023-04-25T13:32:10;5.15;;;1.48;;
52322;SDS011;38263;52.920;6.238;2023-04-25T13:34:36;6.93;;;1.40;;
52322;SDS011;38263;52.920;6.238;2023-04-25T13:37:02;6.60;;;2.17;;
52322;SDS011;38263;52.920;6.238;2023-04-25T13:39:28;5.03;;;1.45;;
52322;SDS011;38263;52.920;6.238;2023-04-25T13:41:54;8.65;;;1.83;;
52322;SDS011;38263;52.920;6.238;2023-04-25T13:44:21;4.90;;;1.67;;
52322;SDS011;38263;52.920;6.238;2023-04-25T13:46:46;13.75;;;2.20;;
52322;SDS011;38263;52.920;6.238;2023-04-25T13:49:13;6.90;;;2.35;;
52322;SDS011;38263;52.920;6.238;2023-04-25T13:51:39;7.28;;;1.70;;
52322;SDS011;38263;52.920;6.238;2023-04-25T13:54:05;6.75;;;1.70;;
52322;SDS011;38263;52.920;6.238;2023-04-25T13:56:31;7.50;;;2.25;;
52322;SDS011;38263;52.920;6.238;2023-04-25T13:58:57;9.20;;;1.70;;
52322;SDS011;38263;52.920;6.238;2023-04-25T14:01:23;6.00;;;1.88;;
52322;SDS011;38263;52.920;6.238;2023-04-25T14:03:49;7.60;;;2.35;;
52322;SDS011;38263;52.920;6.238;2023-04-25T14:06:15;6.80;;;2.97;;
52322;SDS011;38263;52.920;6.238;2023-04-25T14:08:47;11.02;;;2.17;;
52322;SDS011;38263;52.920;6.238;2023-04-25T14:11:13;7.53;;;2.10;;
52322;SDS011;38263;52.920;6.238;2023-04-25T14:13:39;7.53;;;2.08;;
52322;SDS011;38263;52.920;6.238;2023-04-25T14:16:05;6.00;;;2.50;;
52322;SDS011;38263;52.920;6.238;2023-04-25T14:18:31;6.70;;;1.52;;
52322;SDS011;38263;52.920;6.238;2023-04-25T14:20:57;8.82;;;1.70;;
52322;SDS011;38263;52.920;6.238;2023-04-25T14:23:23;5.18;;;1.50;;
52322;SDS011;38263;52.920;6.238;2023-04-25T14:25:49;7.13;;;1.95;;
52322;SDS011;38263;52.920;6.238;2023-04-25T14:28:15;11.20;;;2.83;;
52322;SDS011;38263;52.920;6.238;2023-04-25T14:30:41;3.22;;;1.67;;
52322;SDS011;38263;52.920;6.238;2023-04-25T14:33:07;8.63;;;1.45;;
52322;SDS011;38263;52.920;6.238;2023-04-25T14:35:34;6.53;;;1.60;;
52322;SDS011;38263;52.920;6.238;2023-04-25T14:38:00;7.78;;;1.40;;
52322;SDS011;38263;52.920;6.238;2023-04-25T14:40:26;9.40;;;1.65;;
52322;SDS011;38263;52.920;6.238;2023-04-25T14:42:52;4.53;;;1.42;;
52322;SDS011;38263;52.920;6.238;2023-04-25T14:45:18;4.55;;;1.60;;
52322;SDS011;38263;52.920;6.238;2023-04-25T14:47:44;8.60;;;1.92;;
52322;SDS011;38263;52.920;6.238;2023-04-25T14:50:10;8.48;;;2.17;;
52322;SDS011;38263;52.920;6.238;2023-04-25T14:52:37;8.43;;;1.90;;